This is the latest recevied weather packets stored in our database for station/object WX-BALC. If no packets are shown the sender has not sent any weather packets the latest 10 day(s).
| Time | Temp. | Humidity | Pressure | Rain* | Wind** | Luminosity | Snow |
|---|---|---|---|---|---|---|---|
| 1787573887 | 81° F | 86% | 760 mmHg | - | - | - | - |
| 1787568397 | 81° F | 85% | 759.7 mmHg | - | - | - | - |
| 1787566567 | 81° F | 84% | 759.7 mmHg | - | - | - | - |
| 1787564736 | 81° F | 82% | 759.4 mmHg | - | - | - | - |
| 1787562906 | 82° F | 81% | 759.7 mmHg | - | - | - | - |
| 1787561075 | 82° F | 80% | 759.4 mmHg | - | - | - | - |
| 1787555586 | 83° F | 75% | 759.4 mmHg | - | - | - | - |
| 1787553756 | 84° F | 73% | 759.4 mmHg | - | - | - | - |
| 1787550094 | 85° F | 69% | 759.7 mmHg | - | - | - | - |
| 1787548264 | 86° F | 64% | 759.7 mmHg | - | - | - | - |
| 1787539114 | 91° F | 60% | 759.4 mmHg | - | - | - | - |
| 1787533592 | 96° F | 52% | 758.7 mmHg | - | - | - | - |
| 1787531763 | 98° F | 50% | 758.5 mmHg | - | - | - | - |
| 1787529933 | 102° F | 46% | 758.5 mmHg | - | - | - | - |
| 1787528102 | 104° F | 45% | 758.5 mmHg | - | - | - | - |
| 1787526271 | 106° F | 42% | 758.5 mmHg | - | - | - | - |
| 1787524441 | 108° F | 40% | 758.5 mmHg | - | - | - | - |
| 1787522611 | 106° F | 42% | 758.5 mmHg | - | - | - | - |
| 1787520782 | 106° F | 42% | 758.7 mmHg | - | - | - | - |
| 1787518953 | 105° F | 43% | 759 mmHg | - | - | - | - |
| 1787517121 | 103° F | 44% | 759.2 mmHg | - | - | - | - |
| 1787515292 | 102° F | 44% | 759.7 mmHg | - | - | - | - |
| 1787509799 | 95° F | 51% | 760.2 mmHg | - | - | - | - |
| 1787506139 | 90° F | 57% | 761 mmHg | - | - | - | - |
| 1787504309 | 88° F | 61% | 761 mmHg | - | - | - | - |
* Rain since midnight (hover to see other rain measurements)
** Current wind speed in m/s (hover to see current wind gust speed)